Terminal Aerodrome Forecast
Issued by NWS

Home | Current Version | Previous Version | Text Only | Print | Product List | Glossary On
Versions: 1 2 3 4 5 6 7 8 9 10 11 12 13 14 15 16 17 18 19
000
FTUS45 KBOU 081138
TAFAPA
TAF
KAPA 081138Z 0812/0912 18006KT P6SM VCFG FEW010
     FM081600 15004KT P6SM FEW020 SCT200
     FM082000 08007KT P6SM FEW120 BKN200
     FM090100 17007KT P6SM SCT120 BKN200=

USA.gov is the U.S. government's official web portal to all federal, state and local government web resources and services.